createdAt,value
2023-03-12T00:00:11.247Z,13.63
2023-03-12T00:02:39.048Z,12.70
2023-03-12T00:05:07.259Z,13.43
2023-03-12T00:07:36.617Z,12.98
2023-03-12T00:10:05.775Z,14.10
2023-03-12T00:12:33.763Z,13.35
2023-03-12T00:15:01.610Z,13.98
2023-03-12T00:17:30.405Z,14.43
2023-03-12T00:19:57.807Z,13.25
2023-03-12T00:22:25.913Z,12.88
2023-03-12T00:24:55.203Z,11.75
2023-03-12T00:27:23.416Z,13.50
2023-03-12T00:29:51.008Z,12.82
2023-03-12T00:32:18.616Z,11.65
2023-03-12T00:34:52.017Z,12.57
2023-03-12T00:37:19.810Z,11.40
2023-03-12T00:39:47.397Z,12.50
2023-03-12T00:42:15.266Z,27.17
2023-03-12T00:44:44.265Z,10.73
2023-03-12T00:47:12.465Z,10.43
2023-03-12T00:49:40.322Z,11.18
2023-03-12T00:52:08.078Z,10.27
2023-03-12T00:54:35.398Z,12.48
2023-03-12T00:57:02.749Z,9.50
2023-03-12T00:59:30.461Z,9.38
2023-03-12T01:01:58.022Z,10.40
2023-03-12T01:04:25.643Z,9.98
2023-03-12T01:06:53.258Z,8.32
2023-03-12T01:09:20.791Z,8.88
2023-03-12T01:11:48.197Z,14.82
2023-03-12T01:14:16.009Z,10.38
2023-03-12T01:16:43.399Z,9.05
2023-03-12T01:19:11.123Z,10.30
2023-03-12T01:21:38.901Z,8.13
2023-03-12T01:24:06.856Z,8.52
2023-03-12T01:26:34.331Z,8.75
2023-03-12T01:29:02.000Z,8.57
2023-03-12T01:31:29.578Z,8.13
2023-03-12T01:33:57.034Z,8.68
2023-03-12T01:36:27.455Z,9.48
2023-03-12T01:38:57.151Z,12.60
2023-03-12T01:41:26.106Z,8.48
2023-03-12T01:43:54.064Z,7.75
2023-03-12T01:46:26.653Z,9.45
2023-03-12T01:49:11.153Z,8.00
2023-03-12T01:51:46.874Z,7.63
2023-03-12T01:54:25.287Z,9.20
2023-03-12T01:56:54.185Z,8.57
2023-03-12T01:59:32.890Z,8.65
2023-03-12T02:02:00.960Z,8.68
2023-03-12T02:04:31.139Z,7.03
2023-03-12T02:07:03.055Z,8.77
2023-03-12T02:09:33.803Z,8.05
2023-03-12T02:12:01.337Z,8.20
2023-03-12T02:14:29.221Z,7.38
2023-03-12T02:16:56.846Z,7.78
2023-03-12T02:19:50.259Z,8.50
2023-03-12T02:22:19.140Z,7.03
2023-03-12T02:24:51.240Z,7.68
2023-03-12T02:27:19.944Z,7.88
2023-03-12T02:29:47.631Z,7.40
2023-03-12T02:32:23.322Z,7.90
2023-03-12T02:34:50.941Z,7.20
2023-03-12T02:37:19.945Z,6.63
2023-03-12T02:40:00.054Z,6.40
2023-03-12T02:42:27.878Z,7.32
2023-03-12T02:44:55.496Z,7.43
2023-03-12T02:47:23.648Z,5.90
2023-03-12T02:49:52.692Z,6.57
2023-03-12T02:52:20.176Z,5.78
2023-03-12T02:54:47.845Z,5.95
2023-03-12T02:57:15.360Z,6.30
2023-03-12T02:59:42.936Z,6.70
2023-03-12T03:02:12.611Z,6.05
2023-03-12T03:04:40.143Z,5.10
2023-03-12T03:07:07.846Z,5.60
2023-03-12T03:09:35.453Z,5.63
2023-03-12T03:12:02.975Z,5.63
2023-03-12T03:14:30.241Z,5.10
2023-03-12T03:16:57.731Z,7.32
2023-03-12T03:19:25.348Z,6.18
2023-03-12T03:21:52.796Z,5.18
2023-03-12T03:24:20.145Z,5.45
2023-03-12T03:26:47.652Z,6.07
2023-03-12T03:29:15.382Z,5.00
2023-03-12T03:31:43.058Z,5.05
2023-03-12T03:34:10.761Z,5.20
2023-03-12T03:36:38.197Z,5.63
2023-03-12T03:39:05.555Z,5.95
2023-03-12T03:41:33.289Z,5.78
2023-03-12T03:44:00.700Z,4.97
2023-03-12T03:46:28.148Z,5.40
2023-03-12T03:48:55.745Z,5.38
2023-03-12T03:51:23.293Z,5.93
2023-03-12T03:53:50.644Z,5.75
2023-03-12T03:56:18.539Z,5.72
2023-03-12T03:58:45.902Z,5.93
2023-03-12T04:01:15.034Z,5.65
2023-03-12T04:03:42.627Z,6.43
2023-03-12T04:06:11.135Z,5.18
2023-03-12T04:08:38.902Z,5.63
2023-03-12T04:11:18.594Z,4.80
2023-03-12T04:13:47.145Z,6.50
2023-03-12T04:16:15.785Z,4.40
2023-03-12T04:18:43.638Z,4.45
2023-03-12T04:21:12.546Z,3.50
2023-03-12T04:23:40.092Z,4.57
2023-03-12T04:26:07.990Z,4.57
2023-03-12T04:28:36.486Z,5.35
2023-03-12T04:31:07.059Z,3.85
2023-03-12T04:33:36.733Z,4.65
2023-03-12T04:36:05.075Z,5.57
2023-03-12T04:38:32.776Z,4.85
2023-03-12T04:41:05.559Z,5.95
2023-03-12T04:43:33.841Z,4.65
2023-03-12T04:46:02.444Z,5.22
2023-03-12T04:48:30.047Z,4.60
2023-03-12T04:50:57.486Z,4.30
2023-03-12T04:53:25.375Z,4.50
2023-03-12T04:55:53.123Z,4.60
2023-03-12T04:58:21.755Z,5.10
2023-03-12T05:00:50.403Z,4.65
2023-03-12T05:03:18.402Z,6.15
2023-03-12T05:05:45.749Z,4.22
2023-03-12T05:08:13.262Z,6.35
2023-03-12T05:10:40.807Z,4.40
2023-03-12T05:13:19.589Z,6.72
2023-03-12T05:15:47.750Z,4.82
2023-03-12T05:18:15.184Z,5.03
2023-03-12T05:20:42.702Z,5.90
2023-03-12T05:23:10.417Z,5.38
2023-03-12T05:25:41.645Z,4.50
2023-03-12T05:30:36.868Z,6.00
2023-03-12T05:33:04.314Z,5.75
2023-03-12T05:35:31.996Z,5.88
2023-03-12T05:37:59.694Z,6.10
2023-03-12T05:40:27.140Z,4.60
2023-03-12T05:42:54.585Z,6.57
2023-03-12T05:45:22.138Z,5.25
2023-03-12T05:47:49.386Z,4.57
2023-03-12T05:50:16.883Z,5.55
2023-03-12T05:52:44.558Z,6.80
2023-03-12T05:55:12.057Z,5.78
2023-03-12T05:57:39.439Z,5.68
2023-03-12T06:00:07.585Z,5.63
2023-03-12T06:02:35.394Z,5.85
2023-03-12T06:05:02.987Z,6.47
2023-03-12T06:07:30.638Z,7.53
2023-03-12T06:09:59.888Z,6.00
2023-03-12T06:12:27.577Z,6.68
2023-03-12T06:14:55.191Z,6.82
2023-03-12T06:17:22.676Z,5.85
2023-03-12T06:19:53.589Z,6.13
2023-03-12T06:22:21.037Z,5.57
2023-03-12T06:24:48.601Z,6.13
2023-03-12T06:27:17.194Z,6.18
2023-03-12T06:29:47.241Z,6.35
2023-03-12T06:32:14.723Z,6.20
2023-03-12T06:34:42.133Z,6.00
2023-03-12T06:37:10.085Z,6.88
2023-03-12T06:39:38.266Z,5.22
2023-03-12T06:42:06.106Z,6.95
2023-03-12T06:44:33.587Z,6.07
2023-03-12T06:47:01.179Z,4.57
2023-03-12T06:49:32.195Z,6.60
2023-03-12T06:51:59.749Z,9.07
2023-03-12T06:54:27.231Z,7.55
2023-03-12T06:56:54.754Z,5.55
2023-03-12T06:59:22.575Z,6.50
2023-03-12T07:01:50.032Z,6.82
2023-03-12T07:04:17.850Z,6.70
2023-03-12T07:06:50.444Z,5.78
2023-03-12T07:09:18.983Z,5.18
2023-03-12T07:11:46.685Z,5.97
2023-03-12T07:14:13.987Z,5.32
2023-03-12T07:16:41.331Z,5.68
2023-03-12T07:19:08.942Z,5.75
2023-03-12T07:21:36.538Z,4.93
2023-03-12T07:24:07.190Z,5.72
2023-03-12T07:26:35.746Z,6.32
2023-03-12T07:29:05.113Z,6.75
2023-03-12T07:31:32.523Z,5.63
2023-03-12T07:34:00.018Z,4.70
2023-03-12T07:36:27.591Z,6.18
2023-03-12T07:38:55.276Z,4.95
2023-03-12T07:41:22.850Z,5.28
2023-03-12T07:43:50.180Z,5.32
2023-03-12T07:46:17.765Z,5.32
2023-03-12T07:48:45.332Z,4.93
2023-03-12T07:51:12.889Z,6.40
2023-03-12T07:53:40.186Z,6.55
2023-03-12T07:56:08.029Z,5.05
2023-03-12T07:58:38.069Z,4.93
2023-03-12T08:01:07.922Z,5.47
2023-03-12T08:03:39.178Z,4.35
2023-03-12T08:06:07.017Z,6.05
2023-03-12T08:08:36.913Z,7.00
2023-03-12T08:11:05.909Z,4.72
2023-03-12T08:13:33.693Z,4.95
2023-03-12T08:16:01.146Z,7.95
2023-03-12T08:18:28.438Z,5.43
2023-03-12T08:20:55.838Z,5.68
2023-03-12T08:23:24.778Z,4.53
2023-03-12T08:25:53.038Z,6.13
2023-03-12T08:28:22.831Z,5.00
2023-03-12T08:30:54.159Z,4.53
2023-03-12T08:33:22.929Z,6.68
2023-03-12T08:35:50.916Z,4.18
2023-03-12T08:38:18.823Z,6.13
2023-03-12T08:40:46.337Z,4.13
2023-03-12T08:43:13.830Z,5.43
2023-03-12T08:45:41.236Z,5.82
2023-03-12T08:48:08.730Z,4.78
2023-03-12T08:50:37.582Z,5.22
2023-03-12T08:53:05.442Z,4.63
2023-03-12T08:55:32.730Z,5.65
2023-03-12T08:58:02.658Z,5.88
2023-03-12T09:00:31.644Z,5.30
2023-03-12T09:03:02.253Z,5.28
2023-03-12T09:05:31.423Z,4.80
2023-03-12T09:08:00.324Z,5.67
2023-03-12T09:10:31.230Z,6.00
2023-03-12T09:13:00.211Z,5.18
2023-03-12T09:15:28.559Z,5.85
2023-03-12T09:17:57.147Z,5.35
2023-03-12T09:20:25.935Z,5.07
2023-03-12T09:22:54.397Z,8.57
2023-03-12T09:25:23.666Z,5.13
2023-03-12T09:27:52.622Z,4.95
2023-03-12T09:30:25.308Z,6.05
2023-03-12T09:32:54.782Z,4.85
2023-03-12T09:35:22.685Z,4.50
2023-03-12T09:37:51.432Z,4.32
2023-03-12T09:40:24.782Z,5.82
2023-03-12T09:43:27.961Z,5.78
2023-03-12T09:45:57.060Z,5.00
2023-03-12T09:48:37.509Z,5.38
2023-03-12T09:51:45.766Z,5.33
2023-03-12T09:54:29.868Z,4.65
2023-03-12T09:57:02.167Z,5.22
2023-03-12T09:59:29.785Z,5.10
2023-03-12T10:02:01.522Z,4.65
2023-03-12T10:04:58.951Z,4.57
2023-03-12T10:07:40.572Z,5.03
2023-03-12T10:12:47.724Z,3.72
2023-03-12T10:15:33.715Z,3.80
2023-03-12T10:18:08.122Z,3.65
2023-03-12T10:20:55.806Z,5.55
2023-03-12T10:23:44.378Z,4.28
2023-03-12T10:26:19.078Z,4.65
2023-03-12T10:28:51.872Z,5.22
2023-03-12T10:31:36.966Z,4.28
2023-03-12T10:34:15.456Z,5.28
2023-03-12T10:36:46.667Z,4.85
2023-03-12T10:39:18.017Z,4.07
2023-03-12T10:41:46.986Z,4.40
2023-03-12T10:44:21.976Z,5.32
2023-03-12T10:46:56.364Z,3.85
2023-03-12T10:49:30.071Z,5.30
2023-03-12T10:52:02.318Z,5.25
2023-03-12T10:54:31.667Z,3.03
2023-03-12T10:56:59.259Z,5.57
2023-03-12T10:59:30.814Z,5.63
2023-03-12T11:01:59.111Z,4.38
2023-03-12T11:04:30.504Z,5.15
2023-03-12T11:07:18.762Z,4.07
2023-03-12T11:09:46.419Z,4.28
2023-03-12T11:12:24.527Z,3.70
2023-03-12T11:14:52.170Z,3.60
2023-03-12T11:17:25.967Z,4.35
2023-03-12T11:19:53.864Z,3.42
2023-03-12T11:22:33.615Z,6.35
2023-03-12T11:25:06.080Z,3.72
2023-03-12T11:27:49.961Z,4.82
2023-03-12T11:30:25.277Z,3.80
2023-03-12T11:32:53.192Z,4.40
2023-03-12T11:35:46.832Z,3.67
2023-03-12T11:38:26.917Z,4.38
2023-03-12T11:41:18.467Z,5.63
2023-03-12T11:44:15.029Z,5.43
2023-03-12T11:47:10.409Z,3.70
2023-03-12T11:49:49.294Z,4.07
2023-03-12T11:52:54.564Z,4.28
2023-03-12T11:55:24.674Z,3.90
2023-03-12T11:58:08.896Z,3.55
2023-03-12T12:00:49.166Z,4.90
2023-03-12T12:03:59.016Z,4.30
2023-03-12T12:06:46.917Z,4.65
2023-03-12T12:09:32.365Z,4.53
2023-03-12T12:12:11.712Z,4.22
2023-03-12T12:15:04.859Z,3.28
2023-03-12T12:17:45.287Z,4.38
2023-03-12T12:20:27.354Z,4.40
2023-03-12T12:22:55.059Z,4.40
2023-03-12T12:25:57.685Z,4.63
2023-03-12T12:28:49.056Z,4.43
2023-03-12T12:31:31.122Z,4.20
2023-03-12T12:34:07.832Z,4.30
2023-03-12T12:36:36.822Z,4.75
2023-03-12T12:39:15.261Z,4.28
2023-03-12T12:41:51.418Z,3.75
2023-03-12T12:44:30.116Z,3.75
2023-03-12T12:47:02.678Z,4.15
2023-03-12T12:49:47.063Z,4.32
2023-03-12T12:52:20.917Z,4.40
2023-03-12T12:54:51.060Z,4.78
2023-03-12T12:57:38.150Z,4.30
2023-03-12T13:00:20.276Z,4.88
2023-03-12T13:02:49.063Z,4.47
2023-03-12T13:05:40.868Z,4.13
2023-03-12T13:08:11.811Z,4.28
2023-03-12T13:13:27.169Z,4.45
2023-03-12T13:16:20.950Z,3.88
2023-03-12T13:18:59.937Z,3.72
2023-03-12T13:21:41.099Z,3.85
2023-03-12T13:26:55.013Z,3.30
2023-03-12T13:29:40.118Z,3.45
2023-03-12T13:32:35.146Z,3.25
2023-03-12T13:35:36.384Z,3.65
2023-03-12T13:38:06.818Z,3.63
2023-03-12T13:40:36.840Z,3.60
2023-03-12T13:43:16.018Z,3.97
2023-03-12T13:46:01.780Z,4.95
2023-03-12T13:48:29.718Z,4.60
2023-03-12T13:51:11.446Z,4.05
2023-03-12T13:53:40.748Z,4.45
2023-03-12T13:56:12.787Z,4.95
2023-03-12T13:59:05.816Z,4.20
2023-03-12T14:01:57.669Z,4.65
2023-03-12T14:04:40.918Z,4.32
2023-03-12T14:07:11.167Z,3.90
2023-03-12T14:10:07.027Z,4.25
2023-03-12T14:12:35.826Z,4.30
2023-03-12T14:15:20.311Z,3.97
2023-03-12T14:17:59.625Z,3.65
2023-03-12T14:20:28.367Z,3.10
2023-03-12T14:23:04.410Z,3.88
2023-03-12T14:25:36.775Z,3.45
2023-03-12T14:28:11.517Z,4.15
2023-03-12T14:30:50.225Z,3.60
2023-03-12T14:33:19.078Z,3.67
2023-03-12T14:36:07.813Z,3.75
2023-03-12T14:38:42.770Z,2.53
2023-03-12T14:41:15.914Z,3.03
2023-03-12T14:43:44.226Z,3.38
2023-03-12T14:46:23.974Z,2.80
2023-03-12T14:48:54.929Z,2.22
2023-03-12T14:53:53.211Z,2.22
2023-03-12T14:56:32.934Z,2.55
2023-03-12T14:59:20.600Z,1.90
2023-03-12T15:01:48.500Z,2.83
2023-03-12T15:04:20.554Z,1.95
2023-03-12T15:06:52.557Z,2.40
2023-03-12T15:09:26.186Z,3.55
2023-03-12T15:11:58.775Z,3.35
2023-03-12T15:14:29.256Z,2.92
2023-03-12T15:17:00.350Z,3.03
2023-03-12T15:19:32.747Z,2.40
2023-03-12T15:22:00.627Z,3.35
2023-03-12T15:24:34.411Z,2.67
2023-03-12T15:27:30.123Z,3.13
2023-03-12T15:29:59.359Z,3.28
2023-03-12T15:32:28.090Z,3.38
2023-03-12T15:34:59.104Z,3.13
2023-03-12T15:37:38.387Z,3.20
2023-03-12T15:40:20.906Z,3.63
2023-03-12T15:42:49.466Z,3.42
2023-03-12T15:45:24.001Z,3.13
2023-03-12T15:47:54.453Z,3.22
2023-03-12T15:50:57.852Z,3.33
2023-03-12T15:53:33.717Z,3.47
2023-03-12T15:56:05.260Z,3.28
2023-03-12T15:58:35.364Z,3.35
2023-03-12T16:01:15.007Z,2.45
2023-03-12T16:03:45.593Z,2.55
2023-03-12T16:06:18.935Z,1.58
2023-03-12T16:08:59.553Z,2.25
2023-03-12T16:11:30.817Z,2.10
2023-03-12T16:14:04.208Z,2.38
2023-03-12T16:16:31.904Z,1.60
2023-03-12T16:18:59.527Z,1.88
2023-03-12T16:21:27.012Z,1.88
2023-03-12T16:23:54.514Z,2.45
2023-03-12T16:26:22.585Z,1.95
2023-03-12T16:28:49.882Z,1.50
2023-03-12T16:31:17.295Z,1.55
2023-03-12T16:33:45.025Z,1.73
2023-03-12T16:36:17.007Z,1.65
2023-03-12T16:38:45.357Z,2.58
2023-03-12T16:41:20.022Z,2.05
2023-03-12T16:43:50.956Z,2.40
2023-03-12T16:46:20.742Z,2.47
2023-03-12T16:48:53.657Z,2.47
2023-03-12T16:51:21.314Z,2.60
2023-03-12T16:53:58.539Z,2.45
2023-03-12T16:56:32.766Z,2.35
2023-03-12T16:59:05.301Z,2.58
2023-03-12T17:01:32.747Z,2.08
2023-03-12T17:04:00.333Z,3.38
2023-03-12T17:06:28.005Z,1.95
2023-03-12T17:08:55.434Z,2.70
2023-03-12T17:11:28.303Z,2.20
2023-03-12T17:13:59.742Z,3.78
2023-03-12T17:16:28.084Z,2.50
2023-03-12T17:18:55.660Z,2.75
2023-03-12T17:21:23.489Z,2.85
2023-03-12T17:23:51.159Z,2.97
2023-03-12T17:26:19.405Z,2.80
2023-03-12T17:28:47.500Z,2.72
2023-03-12T17:31:15.005Z,2.65
2023-03-12T17:33:43.319Z,2.42
2023-03-12T17:36:11.055Z,2.42
2023-03-12T17:38:40.243Z,2.58
2023-03-12T17:41:23.426Z,2.25
2023-03-12T17:43:52.909Z,2.28
2023-03-12T17:46:20.581Z,5.95
2023-03-12T17:48:47.918Z,2.20
2023-03-12T17:51:15.164Z,2.60
2023-03-12T17:53:42.645Z,2.20
2023-03-12T17:56:12.659Z,1.77
2023-03-12T17:58:41.030Z,2.25
2023-03-12T18:01:08.546Z,2.13
2023-03-12T18:03:37.089Z,2.35
2023-03-12T18:06:04.848Z,2.20
2023-03-12T18:08:32.185Z,2.38
2023-03-12T18:11:01.698Z,2.10
2023-03-12T18:13:30.471Z,2.03
2023-03-12T18:15:58.636Z,2.60
2023-03-12T18:18:27.350Z,3.05
2023-03-12T18:20:54.962Z,2.17
2023-03-12T18:23:23.758Z,2.80
2023-03-12T18:25:51.299Z,2.72
2023-03-12T18:28:19.360Z,2.78
2023-03-12T18:30:47.712Z,2.47
2023-03-12T18:33:15.112Z,2.63
2023-03-12T18:35:46.598Z,3.38
2023-03-12T18:38:14.209Z,3.30
2023-03-12T18:40:41.852Z,3.30
2023-03-12T18:43:09.198Z,2.92
2023-03-12T18:45:41.893Z,3.38
2023-03-12T18:48:09.709Z,5.15
2023-03-12T18:50:37.588Z,4.00
2023-03-12T18:53:05.121Z,4.60
2023-03-12T18:55:32.608Z,4.03
2023-03-12T18:58:00.107Z,3.33
2023-03-12T19:00:27.615Z,10.32
2023-03-12T19:02:55.139Z,4.35
2023-03-12T19:05:22.702Z,3.42
2023-03-12T19:07:50.151Z,4.90
2023-03-12T19:10:17.836Z,3.70
2023-03-12T19:12:52.560Z,4.03
2023-03-12T19:15:24.542Z,3.92
2023-03-12T19:17:52.666Z,4.18
2023-03-12T19:20:21.340Z,5.30
2023-03-12T19:22:48.958Z,5.72
2023-03-12T19:25:16.753Z,4.80
2023-03-12T19:27:44.335Z,4.78
2023-03-12T19:30:13.742Z,5.05
2023-03-12T19:32:44.192Z,5.13
2023-03-12T19:35:15.858Z,5.90
2023-03-12T19:37:44.315Z,4.75
2023-03-12T19:40:13.431Z,4.35
2023-03-12T19:42:41.279Z,5.40
2023-03-12T19:45:09.756Z,4.50
2023-03-12T19:47:37.568Z,5.97
2023-03-12T19:50:05.703Z,13.65
2023-03-12T19:52:33.228Z,6.05
2023-03-12T19:55:05.050Z,4.95
2023-03-12T19:57:34.243Z,5.60
2023-03-12T20:00:02.199Z,6.18
2023-03-12T20:02:31.004Z,6.57
2023-03-12T20:04:59.415Z,7.00
2023-03-12T20:07:28.877Z,7.68
2023-03-12T20:10:02.373Z,5.63
2023-03-12T20:12:30.464Z,6.30
2023-03-12T20:14:58.349Z,6.13
2023-03-12T20:17:26.421Z,6.30
2023-03-12T20:19:56.022Z,5.53
2023-03-12T20:22:26.903Z,5.13
2023-03-12T20:24:56.574Z,5.28
2023-03-12T20:27:24.495Z,4.05
2023-03-12T20:29:52.351Z,3.53
2023-03-12T20:32:21.800Z,4.57
2023-03-12T20:34:55.948Z,3.42
2023-03-12T20:37:31.767Z,3.33
2023-03-12T20:40:05.225Z,3.45
2023-03-12T20:42:34.535Z,3.40
2023-03-12T20:47:34.613Z,2.13
2023-03-12T20:50:06.691Z,2.15
2023-03-12T20:52:34.486Z,2.58
2023-03-12T20:55:02.257Z,1.88
2023-03-12T20:57:37.928Z,2.20
2023-03-12T21:00:06.196Z,2.35
2023-03-12T21:02:34.309Z,1.73
2023-03-12T21:05:02.248Z,1.95
2023-03-12T21:07:29.956Z,1.92
2023-03-12T21:09:57.810Z,1.48
2023-03-12T21:12:29.718Z,0.90
2023-03-12T21:15:07.721Z,1.42
2023-03-12T21:17:40.554Z,1.25
2023-03-12T21:20:15.941Z,1.10
2023-03-12T21:22:48.484Z,1.20
2023-03-12T21:25:27.393Z,1.00
2023-03-12T21:27:57.314Z,1.00
2023-03-12T21:30:24.965Z,1.00
2023-03-12T21:32:52.777Z,1.20
2023-03-12T21:35:20.598Z,1.30
2023-03-12T21:37:49.411Z,1.20
2023-03-12T21:40:20.265Z,1.00
2023-03-12T21:42:48.232Z,1.10
2023-03-12T21:45:15.920Z,0.90
2023-03-12T21:47:43.308Z,1.10
2023-03-12T21:50:11.814Z,1.00
2023-03-12T21:52:43.132Z,0.80
2023-03-12T21:55:12.012Z,1.00
2023-03-12T21:57:40.348Z,0.90
2023-03-12T22:00:14.485Z,0.98
2023-03-12T22:02:44.190Z,1.25
2023-03-12T22:05:12.501Z,0.90
2023-03-12T22:07:40.298Z,0.80
2023-03-12T22:10:12.222Z,1.15
2023-03-12T22:12:41.465Z,0.90
2023-03-12T22:15:09.754Z,0.90
2023-03-12T22:17:37.795Z,1.40
2023-03-12T22:20:07.983Z,1.70
2023-03-12T22:22:35.654Z,1.40
2023-03-12T22:25:05.409Z,1.20
2023-03-12T22:30:06.032Z,1.50
2023-03-12T22:32:33.840Z,1.88
2023-03-12T22:35:04.001Z,1.42
2023-03-12T22:37:33.988Z,1.70
2023-03-12T22:40:06.896Z,1.70
2023-03-12T22:42:42.610Z,1.90
2023-03-12T22:45:11.450Z,1.42
2023-03-12T22:47:38.998Z,1.63
2023-03-12T22:50:07.127Z,1.23
2023-03-12T22:52:35.484Z,1.63
2023-03-12T22:55:03.437Z,1.60
2023-03-12T22:57:39.420Z,1.67
2023-03-12T23:00:16.196Z,1.60
2023-03-12T23:02:43.703Z,1.85
2023-03-12T23:05:11.451Z,1.73
2023-03-12T23:07:38.787Z,1.90
2023-03-12T23:10:07.846Z,1.70
2023-03-12T23:12:35.956Z,1.75
2023-03-12T23:15:03.930Z,1.98
2023-03-12T23:17:31.201Z,2.40
2023-03-12T23:19:58.650Z,2.35
2023-03-12T23:22:26.745Z,2.03
2023-03-12T23:24:54.597Z,2.42
2023-03-12T23:27:22.238Z,1.98
2023-03-12T23:29:50.444Z,3.05
2023-03-12T23:32:20.996Z,3.05
2023-03-12T23:34:48.542Z,3.38
2023-03-12T23:37:16.437Z,3.20
2023-03-12T23:39:54.111Z,3.45
2023-03-12T23:42:23.000Z,3.30
2023-03-12T23:44:50.473Z,4.05
2023-03-12T23:47:17.852Z,4.13
2023-03-12T23:49:48.422Z,3.75
2023-03-12T23:52:16.150Z,3.55
2023-03-12T23:54:43.831Z,4.05
2023-03-12T23:57:11.600Z,3.58
2023-03-12T23:59:39.286Z,3.70
